Terminal Aerodrome Forecast
Issued by NWS

Home | Current Version | Previous Version | Text Only | Print | Product List | Glossary On
Versions: 1 2 3 4 5 6 7 8 9 10 11 12 13 14 15 16 17
000
FTUS41 KBTV 230710 AAA
TAFSLK
TAF AMD
KSLK 230710Z 2307/2406 22006KT 4SM -SHRA BR OVC020 WS020/25035KT
      TEMPO 2307/2310 1SM TSRA BR OVC007CB
     FM231300 21009G18KT P6SM VCSH OVC020
     FM231600 22012G24KT P6SM VCSH OVC035
     FM232300 25008KT P6SM VCSH OVC010=

USA.gov is the U.S. government's official web portal to all federal, state and local government web resources and services.